sensor_id;sensor_type;location;lat;lon;timestamp;P1;durP1;ratioP1;P2;durP2;ratioP2
21827;SDS011;11076;47.942;11.804;2023-03-24T00:04:55;3.83;;;2.65;;
21827;SDS011;11076;47.942;11.804;2023-03-24T00:09:59;5.90;;;3.10;;
21827;SDS011;11076;47.942;11.804;2023-03-24T00:15:02;3.20;;;2.60;;
21827;SDS011;11076;47.942;11.804;2023-03-24T00:20:05;5.68;;;2.70;;
21827;SDS011;11076;47.942;11.804;2023-03-24T00:25:16;4.28;;;2.55;;
21827;SDS011;11076;47.942;11.804;2023-03-24T00:30:19;2.92;;;2.50;;
21827;SDS011;11076;47.942;11.804;2023-03-24T00:35:22;8.23;;;3.03;;
21827;SDS011;11076;47.942;11.804;2023-03-24T00:40:24;7.65;;;2.85;;
21827;SDS011;11076;47.942;11.804;2023-03-24T00:45:29;4.32;;;3.03;;
21827;SDS011;11076;47.942;11.804;2023-03-24T00:50:35;5.22;;;3.10;;
21827;SDS011;11076;47.942;11.804;2023-03-24T00:55:37;3.97;;;2.75;;
21827;SDS011;11076;47.942;11.804;2023-03-24T01:00:40;4.35;;;3.08;;
21827;SDS011;11076;47.942;11.804;2023-03-24T01:05:43;2.85;;;2.28;;
21827;SDS011;11076;47.942;11.804;2023-03-24T01:10:49;3.72;;;2.88;;
21827;SDS011;11076;47.942;11.804;2023-03-24T01:15:52;4.93;;;2.85;;
21827;SDS011;11076;47.942;11.804;2023-03-24T01:20:54;4.38;;;3.08;;
21827;SDS011;11076;47.942;11.804;2023-03-24T01:25:57;8.85;;;3.72;;
21827;SDS011;11076;47.942;11.804;2023-03-24T01:30:59;4.20;;;2.92;;
21827;SDS011;11076;47.942;11.804;2023-03-24T01:36:02;5.63;;;3.10;;
21827;SDS011;11076;47.942;11.804;2023-03-24T01:41:05;3.85;;;2.88;;
21827;SDS011;11076;47.942;11.804;2023-03-24T01:46:16;4.88;;;3.40;;
21827;SDS011;11076;47.942;11.804;2023-03-24T01:51:27;4.63;;;3.00;;
21827;SDS011;11076;47.942;11.804;2023-03-24T01:56:37;3.88;;;3.20;;
21827;SDS011;11076;47.942;11.804;2023-03-24T02:01:43;4.47;;;3.22;;
21827;SDS011;11076;47.942;11.804;2023-03-24T02:07:03;6.45;;;3.90;;
21827;SDS011;11076;47.942;11.804;2023-03-24T02:12:13;5.18;;;3.20;;
21827;SDS011;11076;47.942;11.804;2023-03-24T02:17:22;5.07;;;2.95;;
21827;SDS011;11076;47.942;11.804;2023-03-24T02:22:32;5.10;;;3.72;;
21827;SDS011;11076;47.942;11.804;2023-03-24T02:43:52;5.72;;;3.38;;
21827;SDS011;11076;47.942;11.804;2023-03-24T02:54:08;6.22;;;3.70;;
21827;SDS011;11076;47.942;11.804;2023-03-24T02:59:18;5.95;;;3.58;;
21827;SDS011;11076;47.942;11.804;2023-03-24T03:04:36;7.65;;;4.32;;
21827;SDS011;11076;47.942;11.804;2023-03-24T03:09:48;8.38;;;3.78;;
21827;SDS011;11076;47.942;11.804;2023-03-24T03:14:59;8.85;;;3.70;;
21827;SDS011;11076;47.942;11.804;2023-03-24T03:20:06;3.40;;;2.88;;
21827;SDS011;11076;47.942;11.804;2023-03-24T03:25:13;5.50;;;3.40;;
21827;SDS011;11076;47.942;11.804;2023-03-24T03:30:21;8.18;;;3.83;;
21827;SDS011;11076;47.942;11.804;2023-03-24T03:40:59;5.03;;;3.55;;
21827;SDS011;11076;47.942;11.804;2023-03-24T03:46:09;6.32;;;3.28;;
21827;SDS011;11076;47.942;11.804;2023-03-24T03:51:13;4.05;;;2.80;;
21827;SDS011;11076;47.942;11.804;2023-03-24T03:56:25;7.68;;;2.72;;
21827;SDS011;11076;47.942;11.804;2023-03-24T04:01:49;4.15;;;2.58;;
21827;SDS011;11076;47.942;11.804;2023-03-24T04:13:12;4.25;;;3.10;;
21827;SDS011;11076;47.942;11.804;2023-03-24T04:18:48;5.00;;;3.10;;
21827;SDS011;11076;47.942;11.804;2023-03-24T04:34:29;11.23;;;3.47;;
21827;SDS011;11076;47.942;11.804;2023-03-24T04:39:50;4.28;;;3.00;;
21827;SDS011;11076;47.942;11.804;2023-03-24T04:45:00;4.53;;;2.88;;
21827;SDS011;11076;47.942;11.804;2023-03-24T04:50:41;9.37;;;3.33;;
21827;SDS011;11076;47.942;11.804;2023-03-24T04:55:56;4.45;;;3.30;;
21827;SDS011;11076;47.942;11.804;2023-03-24T05:01:25;5.13;;;3.85;;
21827;SDS011;11076;47.942;11.804;2023-03-24T05:07:09;5.05;;;3.90;;
21827;SDS011;11076;47.942;11.804;2023-03-24T05:12:13;9.05;;;3.78;;
21827;SDS011;11076;47.942;11.804;2023-03-24T05:17:41;6.68;;;3.55;;
21827;SDS011;11076;47.942;11.804;2023-03-24T05:22:44;5.78;;;3.33;;
21827;SDS011;11076;47.942;11.804;2023-03-24T05:27:48;5.10;;;3.58;;
21827;SDS011;11076;47.942;11.804;2023-03-24T05:32:57;5.70;;;3.65;;
21827;SDS011;11076;47.942;11.804;2023-03-24T05:37:59;9.13;;;4.28;;
21827;SDS011;11076;47.942;11.804;2023-03-24T05:43:02;5.93;;;3.33;;
21827;SDS011;11076;47.942;11.804;2023-03-24T05:48:09;6.05;;;4.38;;
21827;SDS011;11076;47.942;11.804;2023-03-24T05:53:33;6.35;;;4.07;;
21827;SDS011;11076;47.942;11.804;2023-03-24T05:59:07;4.60;;;3.55;;
21827;SDS011;11076;47.942;11.804;2023-03-24T06:04:33;6.72;;;4.07;;
21827;SDS011;11076;47.942;11.804;2023-03-24T06:09:43;7.32;;;4.88;;
21827;SDS011;11076;47.942;11.804;2023-03-24T06:14:49;7.57;;;4.82;;
21827;SDS011;11076;47.942;11.804;2023-03-24T06:19:52;8.60;;;5.47;;
21827;SDS011;11076;47.942;11.804;2023-03-24T06:25:21;9.80;;;5.55;;
21827;SDS011;11076;47.942;11.804;2023-03-24T06:30:47;6.03;;;4.30;;
21827;SDS011;11076;47.942;11.804;2023-03-24T06:35:57;7.90;;;3.88;;
21827;SDS011;11076;47.942;11.804;2023-03-24T06:41:03;22.40;;;15.00;;
21827;SDS011;11076;47.942;11.804;2023-03-24T06:46:06;86.95;;;34.97;;
21827;SDS011;11076;47.942;11.804;2023-03-24T06:51:14;119.10;;;56.88;;
21827;SDS011;11076;47.942;11.804;2023-03-24T06:56:16;16.08;;;11.00;;
21827;SDS011;11076;47.942;11.804;2023-03-24T07:01:29;12.18;;;6.43;;
21827;SDS011;11076;47.942;11.804;2023-03-24T07:06:37;10.43;;;5.95;;
21827;SDS011;11076;47.942;11.804;2023-03-24T07:11:48;8.98;;;5.88;;
21827;SDS011;11076;47.942;11.804;2023-03-24T07:16:51;6.38;;;5.07;;
21827;SDS011;11076;47.942;11.804;2023-03-24T07:22:08;7.85;;;5.32;;
21827;SDS011;11076;47.942;11.804;2023-03-24T07:27:30;23.63;;;7.05;;
21827;SDS011;11076;47.942;11.804;2023-03-24T07:32:36;14.18;;;8.88;;
21827;SDS011;11076;47.942;11.804;2023-03-24T07:37:41;14.80;;;7.90;;
21827;SDS011;11076;47.942;11.804;2023-03-24T07:42:44;6.97;;;4.57;;
21827;SDS011;11076;47.942;11.804;2023-03-24T07:48:06;8.55;;;5.25;;
21827;SDS011;11076;47.942;11.804;2023-03-24T07:53:11;5.32;;;2.55;;
21827;SDS011;11076;47.942;11.804;2023-03-24T07:58:13;6.10;;;4.35;;
21827;SDS011;11076;47.942;11.804;2023-03-24T08:03:31;8.18;;;4.82;;
21827;SDS011;11076;47.942;11.804;2023-03-24T08:08:56;9.55;;;4.93;;
21827;SDS011;11076;47.942;11.804;2023-03-24T08:13:59;8.23;;;5.22;;
21827;SDS011;11076;47.942;11.804;2023-03-24T08:19:01;6.70;;;4.55;;
21827;SDS011;11076;47.942;11.804;2023-03-24T08:24:04;4.82;;;4.28;;
21827;SDS011;11076;47.942;11.804;2023-03-24T08:29:07;10.90;;;5.10;;
21827;SDS011;11076;47.942;11.804;2023-03-24T08:34:10;20.45;;;11.18;;
21827;SDS011;11076;47.942;11.804;2023-03-24T08:39:12;8.48;;;5.60;;
21827;SDS011;11076;47.942;11.804;2023-03-24T08:44:15;8.50;;;5.40;;
21827;SDS011;11076;47.942;11.804;2023-03-24T08:49:17;7.18;;;4.68;;
21827;SDS011;11076;47.942;11.804;2023-03-24T08:54:20;5.80;;;4.50;;
21827;SDS011;11076;47.942;11.804;2023-03-24T08:59:24;6.80;;;5.30;;
21827;SDS011;11076;47.942;11.804;2023-03-24T09:04:27;7.47;;;4.80;;
21827;SDS011;11076;47.942;11.804;2023-03-24T09:09:29;7.00;;;4.22;;
21827;SDS011;11076;47.942;11.804;2023-03-24T09:14:31;6.10;;;3.22;;
21827;SDS011;11076;47.942;11.804;2023-03-24T09:19:34;7.00;;;2.78;;
21827;SDS011;11076;47.942;11.804;2023-03-24T09:24:36;1.95;;;1.77;;
21827;SDS011;11076;47.942;11.804;2023-03-24T09:29:39;2.45;;;2.10;;
21827;SDS011;11076;47.942;11.804;2023-03-24T09:34:41;3.08;;;2.72;;
21827;SDS011;11076;47.942;11.804;2023-03-24T09:39:44;4.50;;;2.40;;
21827;SDS011;11076;47.942;11.804;2023-03-24T09:44:47;4.20;;;2.58;;
21827;SDS011;11076;47.942;11.804;2023-03-24T09:49:56;5.35;;;2.78;;
21827;SDS011;11076;47.942;11.804;2023-03-24T09:55:03;4.15;;;2.28;;
21827;SDS011;11076;47.942;11.804;2023-03-24T10:11:12;8.98;;;2.58;;
21827;SDS011;11076;47.942;11.804;2023-03-24T10:16:20;3.05;;;2.40;;
21827;SDS011;11076;47.942;11.804;2023-03-24T10:21:31;5.20;;;2.40;;
21827;SDS011;11076;47.942;11.804;2023-03-24T10:26:55;2.42;;;2.22;;
21827;SDS011;11076;47.942;11.804;2023-03-24T10:37:23;2.40;;;2.20;;
21827;SDS011;11076;47.942;11.804;2023-03-24T10:42:27;2.75;;;2.05;;
21827;SDS011;11076;47.942;11.804;2023-03-24T10:47:33;4.43;;;2.63;;
21827;SDS011;11076;47.942;11.804;2023-03-24T10:52:41;4.68;;;3.17;;
21827;SDS011;11076;47.942;11.804;2023-03-24T10:57:48;2.03;;;1.83;;
21827;SDS011;11076;47.942;11.804;2023-03-24T11:02:55;3.95;;;2.80;;
21827;SDS011;11076;47.942;11.804;2023-03-24T11:08:11;3.50;;;2.97;;
21827;SDS011;11076;47.942;11.804;2023-03-24T11:13:32;3.53;;;3.05;;
21827;SDS011;11076;47.942;11.804;2023-03-24T11:18:35;4.03;;;2.83;;
21827;SDS011;11076;47.942;11.804;2023-03-24T11:23:38;3.00;;;2.70;;
21827;SDS011;11076;47.942;11.804;2023-03-24T11:28:46;2.90;;;2.63;;
21827;SDS011;11076;47.942;11.804;2023-03-24T11:33:57;3.45;;;2.70;;
21827;SDS011;11076;47.942;11.804;2023-03-24T11:39:03;4.80;;;2.75;;
21827;SDS011;11076;47.942;11.804;2023-03-24T11:44:19;2.45;;;2.25;;
21827;SDS011;11076;47.942;11.804;2023-03-24T11:49:30;3.50;;;2.63;;
21827;SDS011;11076;47.942;11.804;2023-03-24T11:54:38;3.17;;;2.88;;
21827;SDS011;11076;47.942;11.804;2023-03-24T11:59:45;4.47;;;2.80;;
21827;SDS011;11076;47.942;11.804;2023-03-24T12:05:07;7.40;;;4.07;;
21827;SDS011;11076;47.942;11.804;2023-03-24T12:37:14;4.63;;;3.15;;
21827;SDS011;11076;47.942;11.804;2023-03-24T12:42:22;5.65;;;3.45;;
21827;SDS011;11076;47.942;11.804;2023-03-24T12:58:18;3.70;;;3.10;;
21827;SDS011;11076;47.942;11.804;2023-03-24T13:14:30;4.13;;;3.58;;
21827;SDS011;11076;47.942;11.804;2023-03-24T13:19:38;2.00;;;1.77;;
21827;SDS011;11076;47.942;11.804;2023-03-24T13:24:42;2.70;;;2.50;;
21827;SDS011;11076;47.942;11.804;2023-03-24T13:29:51;4.35;;;3.30;;
21827;SDS011;11076;47.942;11.804;2023-03-24T13:40:48;2.28;;;2.08;;
21827;SDS011;11076;47.942;11.804;2023-03-24T13:46:06;5.93;;;3.60;;
21827;SDS011;11076;47.942;11.804;2023-03-24T13:56:24;4.15;;;3.33;;
21827;SDS011;11076;47.942;11.804;2023-03-24T14:06:43;4.70;;;3.45;;
21827;SDS011;11076;47.942;11.804;2023-03-24T14:11:49;5.55;;;3.70;;
21827;SDS011;11076;47.942;11.804;2023-03-24T14:32:47;2.17;;;1.77;;
21827;SDS011;11076;47.942;11.804;2023-03-24T14:37:54;1.77;;;1.25;;
21827;SDS011;11076;47.942;11.804;2023-03-24T14:43:01;1.48;;;1.38;;
21827;SDS011;11076;47.942;11.804;2023-03-24T14:48:27;1.80;;;1.55;;
21827;SDS011;11076;47.942;11.804;2023-03-24T14:53:40;2.63;;;1.63;;
21827;SDS011;11076;47.942;11.804;2023-03-24T14:58:43;1.60;;;1.40;;
21827;SDS011;11076;47.942;11.804;2023-03-24T15:08:55;1.40;;;1.30;;
21827;SDS011;11076;47.942;11.804;2023-03-24T15:14:26;1.30;;;1.20;;
21827;SDS011;11076;47.942;11.804;2023-03-24T15:19:29;1.05;;;0.95;;
21827;SDS011;11076;47.942;11.804;2023-03-24T15:24:33;4.95;;;1.48;;
21827;SDS011;11076;47.942;11.804;2023-03-24T15:29:39;1.60;;;1.40;;
21827;SDS011;11076;47.942;11.804;2023-03-24T15:34:45;1.58;;;1.48;;
21827;SDS011;11076;47.942;11.804;2023-03-24T15:39:52;3.92;;;1.80;;
21827;SDS011;11076;47.942;11.804;2023-03-24T15:45:05;1.08;;;0.98;;
21827;SDS011;11076;47.942;11.804;2023-03-24T15:55:38;1.38;;;1.27;;
21827;SDS011;11076;47.942;11.804;2023-03-24T16:00:43;1.42;;;1.17;;
21827;SDS011;11076;47.942;11.804;2023-03-24T16:05:47;1.45;;;1.27;;
21827;SDS011;11076;47.942;11.804;2023-03-24T16:10:56;2.33;;;1.15;;
21827;SDS011;11076;47.942;11.804;2023-03-24T16:21:18;1.65;;;1.55;;
21827;SDS011;11076;47.942;11.804;2023-03-24T16:26:27;3.13;;;1.40;;
21827;SDS011;11076;47.942;11.804;2023-03-24T16:31:31;3.88;;;1.50;;
21827;SDS011;11076;47.942;11.804;2023-03-24T16:36:37;1.15;;;1.10;;
21827;SDS011;11076;47.942;11.804;2023-03-24T16:41:39;5.35;;;1.60;;
21827;SDS011;11076;47.942;11.804;2023-03-24T16:46:42;4.80;;;1.48;;
21827;SDS011;11076;47.942;11.804;2023-03-24T16:51:47;2.67;;;1.17;;
21827;SDS011;11076;47.942;11.804;2023-03-24T16:56:50;1.65;;;1.42;;
21827;SDS011;11076;47.942;11.804;2023-03-24T17:01:52;1.45;;;1.30;;
21827;SDS011;11076;47.942;11.804;2023-03-24T17:06:57;0.95;;;0.95;;
21827;SDS011;11076;47.942;11.804;2023-03-24T17:11:59;1.30;;;1.20;;
21827;SDS011;11076;47.942;11.804;2023-03-24T17:17:04;4.88;;;1.70;;
21827;SDS011;11076;47.942;11.804;2023-03-24T17:22:11;1.13;;;1.00;;
21827;SDS011;11076;47.942;11.804;2023-03-24T17:27:18;2.33;;;1.67;;
21827;SDS011;11076;47.942;11.804;2023-03-24T17:32:29;1.50;;;1.20;;
21827;SDS011;11076;47.942;11.804;2023-03-24T17:37:33;1.40;;;1.20;;
21827;SDS011;11076;47.942;11.804;2023-03-24T17:42:36;1.27;;;0.82;;
21827;SDS011;11076;47.942;11.804;2023-03-24T17:47:39;1.48;;;1.00;;
21827;SDS011;11076;47.942;11.804;2023-03-24T17:52:45;2.05;;;1.08;;
21827;SDS011;11076;47.942;11.804;2023-03-24T17:57:48;1.10;;;1.00;;
21827;SDS011;11076;47.942;11.804;2023-03-24T18:02:50;3.08;;;0.90;;
21827;SDS011;11076;47.942;11.804;2023-03-24T18:07:53;0.88;;;0.88;;
21827;SDS011;11076;47.942;11.804;2023-03-24T18:12:55;0.73;;;0.68;;
21827;SDS011;11076;47.942;11.804;2023-03-24T18:17:58;1.08;;;0.98;;
21827;SDS011;11076;47.942;11.804;2023-03-24T18:23:01;1.27;;;0.80;;
21827;SDS011;11076;47.942;11.804;2023-03-24T18:28:03;1.60;;;0.88;;
21827;SDS011;11076;47.942;11.804;2023-03-24T18:33:06;0.88;;;0.88;;
21827;SDS011;11076;47.942;11.804;2023-03-24T18:38:08;1.55;;;0.90;;
21827;SDS011;11076;47.942;11.804;2023-03-24T18:43:10;3.20;;;1.08;;
21827;SDS011;11076;47.942;11.804;2023-03-24T18:48:13;0.55;;;0.55;;
21827;SDS011;11076;47.942;11.804;2023-03-24T18:53:19;2.17;;;0.95;;
21827;SDS011;11076;47.942;11.804;2023-03-24T18:58:23;0.70;;;0.70;;
21827;SDS011;11076;47.942;11.804;2023-03-24T19:03:25;0.80;;;0.70;;
21827;SDS011;11076;47.942;11.804;2023-03-24T19:08:28;0.93;;;0.80;;
21827;SDS011;11076;47.942;11.804;2023-03-24T19:13:30;0.98;;;0.73;;
21827;SDS011;11076;47.942;11.804;2023-03-24T19:18:33;0.85;;;0.85;;
21827;SDS011;11076;47.942;11.804;2023-03-24T19:23:36;1.35;;;1.00;;
21827;SDS011;11076;47.942;11.804;2023-03-24T19:28:39;1.70;;;1.00;;
21827;SDS011;11076;47.942;11.804;2023-03-24T19:33:42;0.70;;;0.70;;
21827;SDS011;11076;47.942;11.804;2023-03-24T19:38:45;0.63;;;0.63;;
21827;SDS011;11076;47.942;11.804;2023-03-24T19:43:48;1.05;;;1.00;;
21827;SDS011;11076;47.942;11.804;2023-03-24T19:48:50;0.85;;;0.85;;
21827;SDS011;11076;47.942;11.804;2023-03-24T19:53:53;0.80;;;0.80;;
21827;SDS011;11076;47.942;11.804;2023-03-24T19:58:55;2.38;;;0.85;;
21827;SDS011;11076;47.942;11.804;2023-03-24T20:03:57;0.80;;;0.80;;
21827;SDS011;11076;47.942;11.804;2023-03-24T20:09:00;1.00;;;1.00;;
21827;SDS011;11076;47.942;11.804;2023-03-24T20:14:02;0.70;;;0.70;;
21827;SDS011;11076;47.942;11.804;2023-03-24T20:19:04;0.65;;;0.65;;
21827;SDS011;11076;47.942;11.804;2023-03-24T20:24:07;1.30;;;0.93;;
21827;SDS011;11076;47.942;11.804;2023-03-24T20:29:09;1.40;;;1.08;;
21827;SDS011;11076;47.942;11.804;2023-03-24T20:34:12;0.85;;;0.85;;
21827;SDS011;11076;47.942;11.804;2023-03-24T20:39:14;1.10;;;0.80;;
21827;SDS011;11076;47.942;11.804;2023-03-24T20:44:17;1.23;;;0.80;;
21827;SDS011;11076;47.942;11.804;2023-03-24T20:49:19;0.93;;;0.63;;
21827;SDS011;11076;47.942;11.804;2023-03-24T20:54:22;1.48;;;0.77;;
21827;SDS011;11076;47.942;11.804;2023-03-24T20:59:25;0.60;;;0.60;;
21827;SDS011;11076;47.942;11.804;2023-03-24T21:04:27;0.93;;;0.65;;
21827;SDS011;11076;47.942;11.804;2023-03-24T21:09:29;0.77;;;0.77;;
21827;SDS011;11076;47.942;11.804;2023-03-24T21:14:34;2.15;;;0.65;;
21827;SDS011;11076;47.942;11.804;2023-03-24T21:19:36;0.50;;;0.50;;
21827;SDS011;11076;47.942;11.804;2023-03-24T21:24:39;2.37;;;1.17;;
21827;SDS011;11076;47.942;11.804;2023-03-24T21:29:43;2.47;;;0.90;;
21827;SDS011;11076;47.942;11.804;2023-03-24T21:34:45;0.70;;;0.70;;
21827;SDS011;11076;47.942;11.804;2023-03-24T21:39:47;0.60;;;0.60;;
21827;SDS011;11076;47.942;11.804;2023-03-24T21:44:50;0.60;;;0.60;;
21827;SDS011;11076;47.942;11.804;2023-03-24T21:49:52;0.60;;;0.60;;
21827;SDS011;11076;47.942;11.804;2023-03-24T21:54:59;0.60;;;0.60;;
21827;SDS011;11076;47.942;11.804;2023-03-24T22:00:02;2.57;;;2.20;;
21827;SDS011;11076;47.942;11.804;2023-03-24T22:05:12;0.70;;;0.70;;
21827;SDS011;11076;47.942;11.804;2023-03-24T22:10:17;0.70;;;0.70;;
21827;SDS011;11076;47.942;11.804;2023-03-24T22:15:31;0.93;;;0.80;;
21827;SDS011;11076;47.942;11.804;2023-03-24T22:20:34;0.87;;;0.60;;
21827;SDS011;11076;47.942;11.804;2023-03-24T22:25:38;0.70;;;0.70;;
21827;SDS011;11076;47.942;11.804;2023-03-24T22:30:41;0.80;;;0.80;;
21827;SDS011;11076;47.942;11.804;2023-03-24T22:35:43;1.60;;;0.70;;
21827;SDS011;11076;47.942;11.804;2023-03-24T22:40:45;0.77;;;0.70;;
21827;SDS011;11076;47.942;11.804;2023-03-24T22:45:48;0.80;;;0.80;;
21827;SDS011;11076;47.942;11.804;2023-03-24T22:50:51;1.10;;;1.00;;
21827;SDS011;11076;47.942;11.804;2023-03-24T22:55:53;1.43;;;0.90;;
21827;SDS011;11076;47.942;11.804;2023-03-24T23:00:56;1.90;;;0.70;;
21827;SDS011;11076;47.942;11.804;2023-03-24T23:05:59;0.87;;;0.80;;
21827;SDS011;11076;47.942;11.804;2023-03-24T23:11:05;3.57;;;0.83;;
21827;SDS011;11076;47.942;11.804;2023-03-24T23:16:08;0.90;;;0.90;;
21827;SDS011;11076;47.942;11.804;2023-03-24T23:21:12;0.80;;;0.80;;
21827;SDS011;11076;47.942;11.804;2023-03-24T23:26:17;1.03;;;0.90;;
21827;SDS011;11076;47.942;11.804;2023-03-24T23:31:20;1.27;;;1.00;;
21827;SDS011;11076;47.942;11.804;2023-03-24T23:36:25;0.70;;;0.70;;
21827;SDS011;11076;47.942;11.804;2023-03-24T23:41:29;1.10;;;1.00;;
21827;SDS011;11076;47.942;11.804;2023-03-24T23:46:31;0.67;;;0.60;;
21827;SDS011;11076;47.942;11.804;2023-03-24T23:51:34;6.90;;;0.80;;
21827;SDS011;11076;47.942;11.804;2023-03-24T23:56:36;0.97;;;0.97;;
